Time;durP1;ratioP1;P1;durP2;ratioP2;P2;SDS_P1;SDS_P2;PMS_P1;PMS_P2;Temp;Humidity;BMP_temperature;BMP_pressure;BME280_temperature;BME280_humidity;BME280_pressure;Samples;Min_cycle;Max_cycle;Signal;HPM_P1;HPM_P2
2022/09/03 00:02:20;;;;;;;7.78;2.15;;;;;;;17.87;44.30;99508.56;5071175;28;20024;-80
2022/09/03 00:05:04;;;;;;;5.30;2.42;;;;;;;17.89;44.06;99511.81;5074564;28;20032;-79
2022/09/03 00:07:42;;;;;;;3.83;1.92;;;;;;;17.92;43.88;99511.19;5091145;28;20590;-80
2022/09/03 00:10:13;;;;;;;7.07;2.28;;;;;;;17.91;44.03;99510.34;5074080;28;20618;-79
2022/09/03 00:12:42;;;;;;;4.15;1.60;;;;;;;17.89;44.34;99500.78;5070912;28;20482;-80
2022/09/03 00:15:18;;;;;;;2.63;1.55;;;;;;;17.87;44.13;99503.03;5072494;28;20079;-81
2022/09/03 00:17:53;;;;;;;3.38;1.45;;;;;;;17.87;44.07;99505.78;5085352;28;20032;-79
2022/09/03 00:20:26;;;;;;;2.83;1.95;;;;;;;17.83;44.35;99509.22;5082566;28;20461;-79
2022/09/03 00:22:54;;;;;;;2.83;1.50;;;;;;;17.83;44.10;99506.44;5088738;28;20036;-79
2022/09/03 00:25:28;;;;;;;2.53;1.58;;;;;;;17.85;44.01;99495.91;5070838;28;20033;-80
2022/09/03 00:27:56;;;;;;;3.42;1.52;;;;;;;17.88;44.19;99494.44;5071046;28;20533;-80
2022/09/03 00:30:26;;;;;;;4.47;1.52;;;;;;;17.85;44.08;99501.44;5072908;28;20450;-79
2022/09/03 00:32:58;;;;;;;3.75;1.70;;;;;;;17.76;44.51;99492.31;5070744;28;20033;-80
2022/09/03 00:35:30;;;;;;;1.83;1.27;;;;;;;17.78;44.41;99490.03;5071048;28;20024;-79
2022/09/03 00:37:56;;;;;;;4.95;1.77;;;;;;;17.79;44.20;99499.94;5052883;28;20032;-80
2022/09/03 00:40:49;;;;;;;4.18;1.67;;;;;;;17.74;44.43;99500.91;5083545;28;20520;-79
2022/09/03 00:43:23;;;;;;;3.58;1.77;;;;;;;17.77;44.27;99499.47;5088874;28;20374;-80
2022/09/03 00:46:18;;;;;;;3.17;1.33;;;;;;;17.72;44.48;99497.66;5096650;28;20062;-79
2022/09/03 00:49:01;;;;;;;3.75;1.20;;;;;;;17.74;44.43;99489.88;5093638;28;20115;-79
2022/09/03 00:51:55;;;;;;;5.95;2.20;;;;;;;17.67;44.61;99495.06;5070905;28;20113;-79
2022/09/03 00:54:33;;;;;;;2.38;1.45;;;;;;;17.70;44.72;99494.41;5069921;28;20043;-80
2022/09/03 00:57:24;;;;;;;2.47;1.45;;;;;;;17.66;44.45;99498.09;5070110;28;20033;-80
2022/09/03 01:00:09;;;;;;;5.18;1.65;;;;;;;17.67;44.59;99497.81;5058510;28;20465;-80
2022/09/03 01:02:46;;;;;;;3.55;1.77;;;;;;;17.70;44.62;99493.56;5090432;28;20031;-79
2022/09/03 01:05:33;;;;;;;3.25;1.55;;;;;;;17.69;44.34;99498.31;5090115;28;20043;-79
2022/09/03 01:08:37;;;;;;;4.30;1.90;;;;;;;17.76;44.54;99492.31;5090648;28;20054;-79
2022/09/03 01:11:17;;;;;;;4.85;1.73;;;;;;;17.76;44.37;99495.06;5071611;28;20097;-79
2022/09/03 01:13:52;;;;;;;2.03;1.08;;;;;;;17.69;44.51;99498.31;5073978;28;20123;-79
2022/09/03 01:16:29;;;;;;;4.38;1.52;;;;;;;17.67;44.44;99500.56;5084662;28;20028;-79
2022/09/03 01:19:13;;;;;;;7.13;1.83;;;;;;;17.64;44.68;99497.59;5080984;28;20028;-79
2022/09/03 01:22:02;;;;;;;1.92;1.30;;;;;;;17.64;44.94;99494.84;5074078;28;20040;-79
2022/09/03 01:24:48;;;;;;;3.10;1.05;;;;;;;17.60;44.83;99500.19;5088948;28;20078;-79
2022/09/03 01:27:20;;;;;;;3.17;1.75;;;;;;;17.53;45.08;99489.66;5093747;28;20496;-79
2022/09/03 01:30:02;;;;;;;3.42;1.10;;;;;;;17.58;44.97;99495.00;5089485;28;20040;-79
2022/09/03 01:32:45;;;;;;;2.63;1.38;;;;;;;17.54;44.89;99487.69;5093697;28;20048;-79
2022/09/03 01:35:23;;;;;;;4.57;1.67;;;;;;;17.49;44.86;99491.44;5093501;28;20080;-79
2022/09/03 01:38:00;;;;;;;5.05;1.52;;;;;;;17.50;45.20;99495.78;5094198;28;20073;-78
2022/09/03 01:40:34;;;;;;;2.67;1.42;;;;;;;17.53;44.98;99486.09;5073330;28;20032;-79
2022/09/03 01:43:56;;;;;;;3.65;1.10;;;;;;;17.54;44.96;99491.28;5093444;28;20042;-80
2022/09/03 01:46:44;;;;;;;2.95;1.60;;;;;;;17.49;44.91;99483.94;5049212;28;20098;-79
2022/09/03 01:49:24;;;;;;;16.85;2.15;;;;;;;17.50;44.96;99490.28;5086661;28;20029;-79
2022/09/03 01:51:59;;;;;;;5.60;1.38;;;;;;;17.52;44.91;99482.50;5073272;28;20484;-79
2022/09/03 01:55:10;;;;;;;3.63;1.55;;;;;;;17.51;44.93;99483.66;5073265;28;20036;-79
2022/09/03 01:57:55;;;;;;;3.30;1.60;;;;;;;17.41;45.32;99483.94;5073195;28;20031;-80
2022/09/03 02:00:21;;;;;;;4.85;1.27;;;;;;;17.48;45.08;99479.59;5084840;28;20036;-79
2022/09/03 02:02:49;;;;;;;2.63;1.52;;;;;;;17.44;45.19;99480.53;5093530;28;20422;-80
2022/09/03 02:05:21;;;;;;;4.70;1.42;;;;;;;17.42;45.39;99478.09;5093099;28;20120;-80
2022/09/03 02:07:51;;;;;;;2.33;1.33;;;;;;;17.33;45.54;99491.81;5093189;28;20468;-80
2022/09/03 02:10:29;;;;;;;2.72;1.48;;;;;;;17.33;45.83;99489.06;5076106;28;20040;-79
2022/09/03 02:13:00;;;;;;;3.67;1.48;;;;;;;17.41;45.47;99490.22;5072919;28;20489;-80
2022/09/03 02:15:27;;;;;;;4.05;1.88;;;;;;;17.32;45.51;99490.22;5080569;28;20602;-80
2022/09/03 02:17:56;;;;;;;1.40;1.15;;;;;;;17.32;45.48;99486.63;5098410;28;20477;-79
2022/09/03 02:20:25;;;;;;;5.15;1.92;;;;;;;17.29;45.87;99485.31;5071033;28;20119;-80
2022/09/03 02:22:53;;;;;;;2.47;1.52;;;;;;;17.30;45.89;99480.63;5074402;28;20405;-80
2022/09/03 02:25:20;;;;;;;3.17;1.40;;;;;;;17.26;46.24;99486.78;5092930;28;20027;-80
2022/09/03 02:27:48;;;;;;;4.63;1.23;;;;;;;17.31;45.97;99483.06;5093113;28;20046;-80
2022/09/03 02:30:13;;;;;;;4.13;2.03;;;;;;;17.31;45.86;99488.56;5089502;28;20118;-79
2022/09/03 02:32:38;;;;;;;2.60;1.37;;;;;;;17.31;45.83;99488.56;5092715;28;20128;-79
2022/09/03 02:35:04;;;;;;;2.67;1.48;;;;;;;17.26;46.24;99483.22;5092762;28;20706;-80
2022/09/03 02:37:30;;;;;;;3.08;1.40;;;;;;;17.30;46.11;99486.16;5092674;28;20035;-80
2022/09/03 02:39:55;;;;;;;2.90;1.58;;;;;;;17.25;46.30;99487.09;5079918;28;20130;-79
2022/09/03 02:42:21;;;;;;;2.45;1.13;;;;;;;17.25;46.28;99487.09;5072541;28;20029;-78
2022/09/03 02:44:54;;;;;;;1.83;1.23;;;;;;;17.29;46.11;99484.53;5072529;28;20036;-80
2022/09/03 02:47:19;;;;;;;2.58;1.60;;;;;;;17.20;46.59;99484.47;5091526;28;20039;-80
2022/09/03 02:49:48;;;;;;;1.63;1.10;;;;;;;17.20;46.42;99492.75;5081170;28;20436;-80
2022/09/03 02:52:14;;;;;;;2.60;1.20;;;;;;;17.12;46.40;99486.88;5072213;28;20032;-79
2022/09/03 02:54:40;;;;;;;2.45;1.27;;;;;;;17.19;46.32;99491.13;5054169;28;20054;-80
2022/09/03 02:57:07;;;;;;;3.13;1.75;;;;;;;17.23;46.18;99497.59;5071729;28;20097;-80
2022/09/03 02:59:33;;;;;;;3.53;1.50;;;;;;;17.27;46.57;99484.81;5079485;28;20393;-79
2022/09/03 03:01:58;;;;;;;2.90;1.65;;;;;;;17.27;46.53;99487.59;5092524;28;20050;-80
2022/09/03 03:04:23;;;;;;;2.72;1.20;;;;;;;17.18;46.69;99484.81;5090961;28;20077;-80
2022/09/03 03:06:51;;;;;;;1.90;1.05;;;;;;;17.15;46.48;99480.72;5071893;28;20139;-80
2022/09/03 03:09:17;;;;;;;2.00;1.30;;;;;;;17.14;46.62;99484.63;5075297;28;20028;-80
2022/09/03 03:11:43;;;;;;;2.45;1.25;;;;;;;17.18;46.58;99484.81;5071849;28;20367;-79
2022/09/03 03:14:08;;;;;;;3.17;1.63;;;;;;;17.15;46.68;99483.50;5071880;28;20458;-80
2022/09/03 03:16:33;;;;;;;6.45;1.23;;;;;;;17.09;46.82;99486.66;5071566;28;20079;-81
2022/09/03 03:18:59;;;;;;;1.73;1.23;;;;;;;16.98;46.97;99484.19;5082521;28;20082;-79
2022/09/03 03:21:24;;;;;;;4.18;1.55;;;;;;;17.01;46.88;99474.47;5092193;28;20102;-80
2022/09/03 03:23:50;;;;;;;2.83;1.92;;;;;;;17.03;47.07;99473.03;5081522;28;20043;-80
2022/09/03 03:26:18;;;;;;;3.17;1.63;;;;;;;17.04;47.08;99473.84;5071311;28;20036;-80
2022/09/03 03:28:45;;;;;;;3.10;1.40;;;;;;;17.12;46.84;99475.88;5072222;28;20039;-80
2022/09/03 03:31:13;;;;;;;2.38;1.45;;;;;;;17.06;47.10;99477.09;5070909;28;20071;-80
2022/09/03 03:33:39;;;;;;;4.43;1.40;;;;;;;17.05;46.95;99480.97;5070671;28;20036;-80
2022/09/03 03:36:05;;;;;;;5.30;1.77;;;;;;;16.92;47.48;99472.47;5053094;28;20503;-80
2022/09/03 03:38:31;;;;;;;3.00;1.80;;;;;;;17.02;47.25;99470.59;5070598;28;20063;-80
2022/09/03 03:40:56;;;;;;;11.00;1.58;;;;;;;17.02;46.86;99471.38;5089045;28;20032;-79
2022/09/03 03:43:22;;;;;;;2.67;1.52;;;;;;;17.04;47.15;99465.59;5090988;28;20044;-79
2022/09/03 03:45:59;;;;;;;4.23;1.80;;;;;;;17.04;47.04;99460.88;5091385;28;20461;-80
2022/09/03 03:48:25;;;;;;;3.15;1.58;;;;;;;17.07;46.97;99459.44;5090569;28;20304;-81
2022/09/03 03:50:51;;;;;;;4.03;1.35;;;;;;;17.10;47.07;99466.25;5070669;28;20064;-80
2022/09/03 03:53:16;;;;;;;2.45;1.35;;;;;;;17.18;47.09;99462.78;5071068;28;20111;-81
2022/09/03 03:55:42;;;;;;;1.75;1.23;;;;;;;17.20;47.19;99471.53;5069478;28;20553;-81
2022/09/03 03:58:07;;;;;;;1.98;1.42;;;;;;;17.26;46.69;99461.19;5070671;28;20029;-80
2022/09/03 04:00:36;;;;;;;4.20;1.83;;;;;;;17.17;47.01;99461.13;5071842;28;20032;-80
2022/09/03 04:03:03;;;;;;;2.92;1.70;;;;;;;17.23;46.96;99454.34;5053421;28;20287;-80
2022/09/03 04:05:28;;;;;;;2.65;1.38;;;;;;;17.24;46.67;99452.41;5080921;28;20112;-80
2022/09/03 04:07:53;;;;;;;5.22;1.63;;;;;;;17.25;46.60;99443.00;5091040;28;20119;-80
2022/09/03 04:10:19;;;;;;;5.80;2.30;;;;;;;17.21;46.91;99455.78;5088119;28;20035;-80
2022/09/03 04:12:44;;;;;;;2.97;1.43;;;;;;;17.07;47.28;99440.16;5091241;28;20301;-80
2022/09/03 04:15:09;;;;;;;4.43;1.50;;;;;;;17.21;47.02;99439.28;5090061;28;20283;-78
2022/09/03 04:17:35;;;;;;;5.32;1.48;;;;;;;17.09;47.36;99443.41;5081386;28;20308;-80
2022/09/03 04:20:00;;;;;;;9.90;1.70;;;;;;;17.15;46.83;99439.41;5081472;28;20371;-80
2022/09/03 04:22:28;;;;;;;4.00;2.15;;;;;;;17.18;47.52;99442.66;5071023;28;20402;-80
2022/09/03 04:24:53;;;;;;;2.97;1.80;;;;;;;17.24;47.21;99439.47;5089940;28;20035;-80
2022/09/03 04:27:18;;;;;;;3.28;1.48;;;;;;;17.21;47.28;99436.50;5090847;28;20498;-80
2022/09/03 04:29:44;;;;;;;3.00;1.35;;;;;;;17.13;47.19;99441.69;5086737;28;20466;-79
2022/09/03 04:34:53;;;;;;;2.45;1.40;;;;;;;17.12;47.37;99437.31;5090765;28;20078;-80
2022/09/03 04:37:19;;;;;;;1.80;1.20;;;;;;;17.06;47.50;99426.72;5090787;28;20435;-80
2022/09/03 04:39:44;;;;;;;3.22;1.20;;;;;;;17.10;47.62;99427.72;5080136;28;20477;-80
2022/09/03 04:42:09;;;;;;;3.03;2.00;;;;;;;17.01;47.58;99430.41;5070748;28;20454;-80
2022/09/03 04:44:37;;;;;;;2.65;1.55;;;;;;;16.90;47.86;99430.69;5070876;28;20035;-80
2022/09/03 04:47:03;;;;;;;2.40;1.33;;;;;;;16.98;48.06;99428.31;5108054;28;20028;-80
2022/09/03 04:49:29;;;;;;;4.00;1.70;;;;;;;16.94;47.90;99430.88;5076217;28;20036;-80
2022/09/03 04:51:54;;;;;;;1.75;1.30;;;;;;;16.97;47.62;99429.41;5074593;28;20035;-80
2022/09/03 04:54:19;;;;;;;6.17;1.43;;;;;;;16.99;48.13;99435.41;5074458;28;20428;-80
2022/09/03 04:56:44;;;;;;;3.17;1.47;;;;;;;16.92;47.84;99430.38;5074397;28;20315;-81
2022/09/03 04:59:10;;;;;;;4.97;1.65;;;;;;;17.00;47.77;99437.06;5076830;28;20285;-81
2022/09/03 05:01:38;;;;;;;2.17;1.30;;;;;;;17.04;47.81;99435.31;5074900;28;20063;-81
2022/09/03 05:04:04;;;;;;;2.50;1.30;;;;;;;17.03;47.72;99436.41;5073872;28;20257;-81
2022/09/03 05:06:31;;;;;;;3.08;1.33;;;;;;;17.07;47.56;99440.16;5093138;28;20024;-81
2022/09/03 05:08:56;;;;;;;2.17;1.05;;;;;;;16.99;47.76;99443.69;5088427;28;20041;-80
2022/09/03 05:11:23;;;;;;;6.35;1.38;;;;;;;17.05;47.87;99442.41;5074174;28;20047;-80
2022/09/03 05:13:50;;;;;;;3.58;1.77;;;;;;;16.98;48.42;99442.06;5074566;28;20469;-80
2022/09/03 05:16:16;;;;;;;3.15;1.48;;;;;;;17.00;48.24;99437.84;5085195;28;20377;-80
2022/09/03 05:18:43;;;;;;;3.45;1.60;;;;;;;17.11;47.96;99434.81;5080978;28;20114;-79
2022/09/03 05:21:11;;;;;;;6.50;1.88;;;;;;;17.17;47.74;99427.28;5073793;28;20033;-80
2022/09/03 05:23:39;;;;;;;2.25;1.27;;;;;;;17.15;47.93;99436.66;5081676;28;20040;-80
2022/09/03 05:26:09;;;;;;;6.88;1.73;;;;;;;17.28;47.63;99442.41;5094106;28;20028;-80
2022/09/03 05:28:37;;;;;;;2.63;1.55;;;;;;;17.33;47.85;99441.44;5072131;28;20491;-80
2022/09/03 05:31:26;;;;;;;3.80;1.55;;;;;;;17.35;48.13;99445.50;5073347;28;20036;-82
2022/09/03 05:33:59;;;;;;;2.92;1.63;;;;;;;17.45;48.08;99451.84;5072921;28;20028;-80
2022/09/03 05:36:28;;;;;;;4.65;1.88;;;;;;;17.53;48.10;99447.50;5073084;28;20028;-80
2022/09/03 05:38:53;;;;;;;3.58;2.05;;;;;;;17.58;48.04;99450.91;5072202;28;20054;-80
2022/09/03 05:41:22;;;;;;;4.68;2.10;;;;;;;17.56;48.15;99444.91;5073489;28;20417;-80
2022/09/03 05:43:55;;;;;;;4.57;1.92;;;;;;;17.42;48.11;99444.22;5073149;28;20031;-80
2022/09/03 05:46:25;;;;;;;4.20;1.48;;;;;;;17.38;48.26;99442.13;5085072;28;20039;-80
2022/09/03 05:48:50;;;;;;;2.50;1.25;;;;;;;17.35;47.81;99447.44;5087765;28;20036;-79
2022/09/03 05:51:17;;;;;;;3.60;2.33;;;;;;;17.26;48.38;99437.22;5093249;28;20080;-80
2022/09/03 05:53:45;;;;;;;4.55;2.30;;;;;;;17.28;48.00;99439.63;5093427;28;20407;-80
2022/09/03 05:56:17;;;;;;;3.97;1.60;;;;;;;17.39;47.86;99446.47;5093418;28;20052;-79
2022/09/03 05:58:46;;;;;;;3.80;1.80;;;;;;;17.33;48.15;99447.75;5087056;28;20028;-79
2022/09/03 06:01:19;;;;;;;2.72;1.48;;;;;;;17.39;47.89;99440.97;5072691;28;20157;-79
2022/09/03 06:03:47;;;;;;;3.37;1.27;;;;;;;17.38;48.12;99444.03;5072820;28;20063;-79
2022/09/03 06:06:13;;;;;;;2.45;1.23;;;;;;;17.49;48.12;99447.34;5088861;28;20024;-80
2022/09/03 06:08:38;;;;;;;3.28;1.50;;;;;;;17.60;48.13;99450.59;5090481;28;20034;-80
2022/09/03 06:11:05;;;;;;;3.03;1.73;;;;;;;17.60;48.50;99454.16;5072555;28;20029;-80
2022/09/03 06:13:32;;;;;;;2.28;1.35;;;;;;;17.65;48.32;99455.16;5072429;28;20469;-80
2022/09/03 06:16:01;;;;;;;3.55;1.30;;;;;;;17.62;48.19;99449.16;5062047;28;20038;-80
2022/09/03 06:18:27;;;;;;;4.32;2.10;;;;;;;17.64;48.23;99451.56;5079908;28;20028;-80
2022/09/03 06:20:57;;;;;;;3.72;1.60;;;;;;;17.61;48.20;99449.47;5091114;28;20040;-80
2022/09/03 06:23:23;;;;;;;2.00;1.27;;;;;;;17.72;48.23;99441.69;5085622;28;20090;-80
2022/09/03 06:26:02;;;;;;;6.03;1.42;;;;;;;17.69;48.36;99447.88;5072913;28;20025;-80
2022/09/03 06:28:27;;;;;;;5.32;2.05;;;;;;;17.77;47.75;99451.78;5071568;28;20028;-80
2022/09/03 06:30:56;;;;;;;2.55;1.40;;;;;;;17.83;47.92;99443.03;5070115;28;20128;-80
2022/09/03 06:33:23;;;;;;;2.00;1.23;;;;;;;17.95;48.15;99447.91;5070782;28;20024;-80
2022/09/03 06:35:56;;;;;;;3.75;1.75;;;;;;;18.00;48.05;99451.66;5071515;28;20036;-80
2022/09/03 06:38:21;;;;;;;4.80;1.23;;;;;;;17.99;47.99;99445.31;5071309;28;20028;-80
2022/09/03 06:41:00;;;;;;;3.10;1.75;;;;;;;18.04;48.47;99453.41;5071209;28;20443;-80
2022/09/03 06:43:27;;;;;;;5.00;1.27;;;;;;;18.05;48.49;99454.25;5071778;28;20032;-79
2022/09/03 06:46:05;;;;;;;3.22;1.60;;;;;;;18.11;48.83;99457.66;5086612;28;20031;-79
2022/09/03 06:48:32;;;;;;;5.90;1.95;;;;;;;18.17;48.98;99450.88;5085794;28;20044;-80
2022/09/03 06:51:06;;;;;;;3.85;2.03;;;;;;;18.28;48.94;99445.84;5071318;28;20053;-80
2022/09/03 06:53:34;;;;;;;4.03;1.55;;;;;;;18.40;49.37;99453.47;5071433;28;20035;-80
2022/09/03 06:56:02;;;;;;;4.10;1.67;;;;;;;18.43;49.05;99455.56;5071778;28;20043;-80
2022/09/03 06:58:30;;;;;;;5.28;1.52;;;;;;;18.47;48.34;99448.25;5070989;28;20028;-80
2022/09/03 07:01:05;;;;;;;2.13;1.38;;;;;;;18.51;47.49;99454.75;5071613;28;20043;-81
2022/09/03 07:03:31;;;;;;;2.25;1.30;;;;;;;18.58;48.23;99458.97;5071416;28;20032;-80
2022/09/03 07:06:01;;;;;;;2.50;1.52;;;;;;;18.65;48.21;99453.78;5085662;28;20036;-80
2022/09/03 07:08:28;;;;;;;3.72;1.80;;;;;;;18.87;48.54;99447.22;5088772;28;20672;-80
2022/09/03 07:10:53;;;;;;;3.30;1.90;;;;;;;18.86;49.65;99453.06;5070400;28;20397;-81
2022/09/03 07:13:19;;;;;;;3.97;1.98;;;;;;;18.83;50.15;99453.72;5071455;28;20032;-79
2022/09/03 07:15:45;;;;;;;7.07;2.78;;;;;;;18.97;50.68;99454.34;5078511;28;20631;-80
2022/09/03 07:18:10;;;;;;;3.00;1.85;;;;;;;18.90;48.24;99449.31;5081980;28;20039;-81
2022/09/03 07:20:35;;;;;;;5.05;2.17;;;;;;;18.95;50.85;99462.16;5070373;28;20024;-80
2022/09/03 07:23:00;;;;;;;4.18;1.88;;;;;;;18.89;52.00;99457.94;5071727;28;20145;-80
2022/09/03 07:25:26;;;;;;;11.65;2.88;;;;;;;18.85;51.69;99454.22;5071390;28;20064;-80
2022/09/03 07:27:52;;;;;;;7.25;2.90;;;;;;;18.81;51.97;99454.06;5071371;28;20650;-79
2022/09/03 07:30:19;;;;;;;3.25;2.08;;;;;;;18.77;52.38;99448.38;5070247;28;20139;-81
2022/09/03 07:32:45;;;;;;;6.60;2.67;;;;;;;18.89;52.28;99449.66;5071543;28;20584;-80
2022/09/03 07:35:13;;;;;;;4.88;2.70;;;;;;;19.02;52.06;99448.63;5071279;28;20469;-81
2022/09/03 07:37:42;;;;;;;4.55;1.70;;;;;;;19.13;50.17;99440.00;5053601;28;20420;-80
2022/09/03 07:40:09;;;;;;;3.05;1.73;;;;;;;19.20;49.71;99448.59;5052565;28;20028;-80
2022/09/03 07:42:34;;;;;;;4.30;2.05;;;;;;;19.19;48.89;99454.47;5071254;28;20021;-80
2022/09/03 07:45:04;;;;;;;3.42;1.55;;;;;;;19.14;47.96;99452.69;5071191;28;20032;-79
2022/09/03 07:47:30;;;;;;;2.78;1.00;;;;;;;19.25;47.15;99453.97;5074788;28;20036;-80
2022/09/03 07:49:55;;;;;;;2.95;1.75;;;;;;;19.35;46.54;99451.94;5079258;28;20614;-80
2022/09/03 07:52:21;;;;;;;2.13;1.35;;;;;;;19.42;46.56;99463.31;5071037;28;20592;-79
2022/09/03 07:54:46;;;;;;;2.92;1.42;;;;;;;19.53;46.33;99457.38;5070809;28;20638;-79
2022/09/03 07:57:11;;;;;;;3.40;1.80;;;;;;;19.62;46.49;99454.59;5070736;28;20107;-79
2022/09/03 07:59:37;;;;;;;3.73;1.50;;;;;;;19.64;46.70;99455.88;5078765;28;20303;-80
2022/09/03 08:02:04;;;;;;;4.40;1.50;;;;;;;19.66;46.50;99456.34;5091044;28;20263;-79
2022/09/03 08:04:32;;;;;;;3.00;1.42;;;;;;;19.65;46.26;99449.19;5090783;28;20040;-79
2022/09/03 08:06:58;;;;;;;7.60;2.03;;;;;;;19.68;46.51;99454.06;5091028;28;20035;-80
2022/09/03 08:09:24;;;;;;;3.22;1.38;;;;;;;19.73;45.88;99461.34;5080491;28;20583;-80
2022/09/03 08:11:49;;;;;;;2.85;1.40;;;;;;;19.70;45.82;99457.31;5052861;28;20037;-79
2022/09/03 08:14:15;;;;;;;2.70;1.35;;;;;;;19.77;46.13;99467.03;5070723;28;20608;-80
2022/09/03 08:16:43;;;;;;;2.28;1.25;;;;;;;19.89;45.89;99469.06;5084437;28;20492;-80
2022/09/03 08:19:10;;;;;;;2.08;1.35;;;;;;;20.02;45.59;99467.19;5071936;28;20104;-80
2022/09/03 08:21:35;;;;;;;2.72;1.50;;;;;;;20.08;45.80;99471.41;5072937;28;20486;-80
2022/09/03 08:24:03;;;;;;;2.28;1.20;;;;;;;20.03;46.26;99463.28;5085917;28;20028;-80
2022/09/03 08:26:31;;;;;;;2.65;1.23;;;;;;;20.07;45.59;99469.78;5076575;28;20122;-78
2022/09/03 08:28:57;;;;;;;2.85;1.40;;;;;;;20.24;45.85;99473.59;5083936;28;20028;-80
2022/09/03 08:31:23;;;;;;;4.03;1.67;;;;;;;20.46;45.07;99474.38;5085934;28;20059;-81
2022/09/03 08:33:51;;;;;;;5.25;1.45;;;;;;;20.54;44.72;99470.72;5094332;28;20496;-81
2022/09/03 08:36:24;;;;;;;2.17;1.20;;;;;;;20.62;44.50;99467.06;5094442;28;20070;-81
2022/09/03 08:38:54;;;;;;;2.33;1.23;;;;;;;20.71;44.17;99463.38;5088716;28;20017;-81
2022/09/03 08:41:22;;;;;;;2.53;1.35;;;;;;;21.08;43.87;99465.47;5094003;28;20458;-81
2022/09/03 08:44:05;;;;;;;2.60;1.23;;;;;;;21.16;44.02;99466.50;5094676;28;20059;-82
2022/09/03 08:46:42;;;;;;;4.60;1.52;;;;;;;21.17;43.67;99473.69;5086935;28;20028;-83
2022/09/03 08:49:12;;;;;;;5.00;1.65;;;;;;;21.09;44.34;99475.41;5100245;28;20428;-82
2022/09/03 08:51:39;;;;;;;7.90;1.83;;;;;;;20.98;44.13;99473.06;5096016;28;20077;-82
2022/09/03 08:54:08;;;;;;;5.03;2.70;;;;;;;21.02;44.16;99466.84;5093752;28;20110;-81
2022/09/03 08:56:38;;;;;;;2.58;1.58;;;;;;;21.49;42.94;99467.56;5093029;28;20563;-83
2022/09/03 08:59:04;;;;;;;2.15;1.23;;;;;;;21.52;42.98;99473.22;5073954;28;20040;-83
2022/09/03 09:01:34;;;;;;;5.20;1.75;;;;;;;21.89;42.01;99461.34;5085534;28;20112;-80
2022/09/03 09:04:17;;;;;;;2.63;1.30;;;;;;;21.76;42.89;99459.72;5088672;28;20463;-80
2022/09/03 09:06:53;;;;;;;3.35;1.50;;;;;;;21.79;42.43;99465.38;5073889;28;20035;-81
2022/09/03 09:09:39;;;;;;;5.40;1.92;;;;;;;21.86;42.31;99455.69;5081646;28;20094;-81
2022/09/03 09:12:14;;;;;;;2.30;1.45;;;;;;;22.02;41.91;99456.59;5081202;28;20382;-80
2022/09/03 09:14:45;;;;;;;2.40;1.40;;;;;;;21.88;41.93;99464.47;5093381;28;20048;-80
2022/09/03 09:17:23;;;;;;;3.13;1.95;;;;;;;21.81;42.37;99463.06;5093993;28;20032;-80
2022/09/03 09:20:10;;;;;;;5.43;1.60;;;;;;;21.65;42.60;99459.38;5078117;28;20049;-81
2022/09/03 09:23:18;;;;;;;2.15;1.73;;;;;;;21.70;42.97;99468.25;5073095;28;20109;-79
2022/09/03 09:25:49;;;;;;;2.80;1.52;;;;;;;21.86;42.17;99462.06;5028067;28;20127;-81
2022/09/03 09:28:23;;;;;;;7.32;1.45;;;;;;;21.77;42.74;99448.28;5072187;28;20048;-81
2022/09/03 09:30:52;;;;;;;4.18;1.30;;;;;;;22.09;41.66;99455.19;5072750;28;20052;-80
2022/09/03 09:33:19;;;;;;;4.05;1.40;;;;;;;22.03;41.83;99447.09;5072014;28;20435;-80
2022/09/03 09:35:45;;;;;;;7.07;1.92;;;;;;;22.34;41.23;99453.13;5072713;28;20112;-80
2022/09/03 09:38:12;;;;;;;2.58;1.67;;;;;;;22.26;41.39;99454.06;5072828;28;20048;-81
2022/09/03 09:40:41;;;;;;;2.50;1.80;;;;;;;22.02;41.92;99448.25;5071430;28;20055;-81
2022/09/03 09:43:09;;;;;;;5.40;1.67;;;;;;;22.15;41.41;99446.25;5072569;28;20542;-80
2022/09/03 09:45:36;;;;;;;9.82;1.92;;;;;;;22.34;41.47;99449.53;5078752;28;20039;-81
2022/09/03 09:48:09;;;;;;;2.70;1.77;;;;;;;22.16;41.71;99444.28;5065961;28;20070;-81
2022/09/03 09:50:35;;;;;;;5.67;1.90;;;;;;;22.20;42.27;99449.94;5074234;28;20024;-81
2022/09/03 09:53:13;;;;;;;4.55;1.92;;;;;;;22.22;41.58;99448.44;5072391;28;20032;-80
2022/09/03 09:55:53;;;;;;;2.97;1.73;;;;;;;22.23;41.58;99450.03;5072554;28;20028;-80
2022/09/03 09:58:24;;;;;;;8.55;2.15;;;;;;;22.18;41.76;99441.97;5071649;28;20065;-81
2022/09/03 10:01:13;;;;;;;3.05;1.60;;;;;;;22.20;41.76;99442.41;5071591;28;20169;-82
2022/09/03 10:03:54;;;;;;;4.85;1.77;;;;;;;22.23;41.86;99452.81;5071872;28;20036;-81
2022/09/03 10:09:09;;;;;;;4.32;1.63;;;;;;;22.42;41.93;99445.00;5088686;28;20287;-81
2022/09/03 10:11:39;;;;;;;3.92;2.13;;;;;;;22.28;41.98;99440.66;5092859;28;20099;-81
2022/09/03 10:14:16;;;;;;;4.95;2.38;;;;;;;22.38;41.65;99440.16;5091971;28;20040;-80
2022/09/03 10:16:47;;;;;;;7.22;2.35;;;;;;;22.72;41.53;99445.44;5092685;28;20032;-80
2022/09/03 10:19:19;;;;;;;2.58;1.70;;;;;;;22.85;40.74;99446.19;5072926;28;20044;-80
2022/09/03 10:21:54;;;;;;;3.70;1.70;;;;;;;22.65;41.09;99448.06;5071800;28;20462;-79
2022/09/03 10:24:56;;;;;;;3.65;2.13;;;;;;;22.52;41.27;99447.25;5086073;28;20047;-80
2022/09/03 10:27:22;;;;;;;3.38;1.88;;;;;;;22.57;40.96;99451.75;5092289;28;20036;-81
2022/09/03 10:29:49;;;;;;;6.30;2.13;;;;;;;22.58;41.44;99450.59;5087117;28;20042;-80
2022/09/03 10:32:41;;;;;;;2.70;1.70;;;;;;;22.70;40.97;99461.66;5091952;28;20047;-81
2022/09/03 10:35:29;;;;;;;3.65;1.80;;;;;;;22.93;40.51;99449.97;5091249;28;20040;-81
2022/09/03 10:38:33;;;;;;;4.68;1.70;;;;;;;23.11;40.46;99457.16;5091582;28;20421;-81
2022/09/03 10:41:46;;;;;;;5.28;1.98;;;;;;;23.01;40.13;99455.72;4989225;28;20030;-81
2022/09/03 10:44:41;;;;;;;2.80;1.95;;;;;;;23.05;40.20;99453.81;5083848;28;20622;-80
2022/09/03 10:47:12;;;;;;;4.43;1.73;;;;;;;23.26;40.98;99458.31;5091582;28;20032;-80
2022/09/03 10:50:02;;;;;;;3.50;1.77;;;;;;;23.43;39.97;99451.59;5069422;28;20664;-78
2022/09/03 10:52:49;;;;;;;3.83;1.63;;;;;;;23.23;40.55;99453.50;5071505;28;20033;-77
2022/09/03 10:55:48;;;;;;;5.15;2.58;;;;;;;23.36;39.70;99446.66;5080943;28;20052;-80
2022/09/03 10:58:41;;;;;;;5.15;2.08;;;;;;;23.33;40.11;99452.94;5090745;28;20031;-79
2022/09/03 11:01:17;;;;;;;4.05;2.15;;;;;;;23.32;40.08;99448.53;5071188;28;20408;-80
2022/09/03 11:03:47;;;;;;;9.57;3.45;;;;;;;23.24;39.81;99461.47;5070910;28;20427;-80
2022/09/03 11:06:19;;;;;;;2.38;1.55;;;;;;;23.09;40.43;99452.75;5071553;28;20032;-78
2022/09/03 11:08:45;;;;;;;19.75;3.45;;;;;;;23.07;40.73;99455.09;5072572;28;20500;-77
2022/09/03 11:11:25;;;;;;;4.47;2.00;;;;;;;23.29;39.82;99452.06;5071235;28;20036;-79
2022/09/03 11:13:57;;;;;;;5.38;1.90;;;;;;;23.25;39.83;99449.16;5070719;28;20062;-78
2022/09/03 11:16:29;;;;;;;4.53;1.90;;;;;;;23.38;40.15;99446.28;5082973;28;20088;-78
2022/09/03 11:19:03;;;;;;;3.55;1.65;;;;;;;23.30;39.91;99448.09;5081335;28;20611;-82
2022/09/03 11:21:30;;;;;;;;;;;;;;;23.43;40.06;99446.81;5093472;28;20031;-81
2022/09/03 11:24:19;;;;;;;3.08;1.65;;;;;;;23.70;39.06;99440.72;5092806;28;19961;-78
2022/09/03 11:26:53;;;;;;;6.00;1.77;;;;;;;23.69;39.31;99444.69;5092670;28;20657;-80
2022/09/03 11:29:28;;;;;;;;;;;;;;;23.52;40.19;99440.28;5093082;28;20043;-81
2022/09/03 11:32:09;;;;;;;3.00;1.58;;;;;;;23.53;40.50;99450.28;5075088;28;19923;-81
2022/09/03 11:34:46;;;;;;;4.88;1.77;;;;;;;24.12;38.98;99441.22;5092767;28;20044;-81
2022/09/03 11:37:15;;;;;;;3.40;2.03;;;;;;;24.07;38.84;99439.53;5092702;28;20040;-81
2022/09/03 11:39:40;;;;;;;3.38;1.60;;;;;;;24.19;39.13;99437.75;5091818;28;20044;-81
2022/09/03 11:42:26;;;;;;;5.30;2.00;;;;;;;24.42;37.90;99437.06;5072915;28;20050;-85
2022/09/03 11:44:52;;;;;;;8.65;2.03;;;;;;;24.44;37.89;99440.28;5072705;28;20642;-85
2022/09/03 11:47:38;;;;;;;4.47;1.87;;;;;;;24.73;37.93;99446.41;5073945;28;20029;-85
2022/09/03 11:50:14;;;;;;;5.93;1.95;;;;;;;24.47;36.87;99439.53;5073814;28;20383;-84
2022/09/03 11:52:39;;;;;;;6.57;2.47;;;;;;;24.55;37.53;99441.28;5072783;28;20028;-84
2022/09/03 11:55:06;;;;;;;4.93;1.67;;;;;;;24.59;37.80;99442.16;5074110;28;20520;-84
2022/09/03 11:57:38;;;;;;;8.05;1.67;;;;;;;24.71;37.64;99443.97;5089800;28;20249;-84
2022/09/03 12:00:16;;;;;;;4.07;2.08;;;;;;;24.71;37.79;99443.19;5079784;28;20036;-84
2022/09/03 12:02:49;;;;;;;7.20;2.10;;;;;;;24.64;37.99;99454.19;5072844;28;20028;-84